To NAV CANADA Home Page Login to a new session Search on AWWS site Feedback and Comments Disclaimer Vers la page française équivalente Tips FAQ What's new on the site To the Forecasts and Observations / NOTAM section To "File a Flight Plan" website Publications and other links Update of the User's profile FIC Telephone Numbers My Weather Data Folder Route Weather Data Regional Weather Data Local Weather Data To the Forecasts and Observations / NOTAM section
Request Generated 04/27/2015 at 15:31:40 UTC . Weather information available at that time is displayed.

METAR/TAF

SWIFT CURRENT/SK    (show WxCam)

METAR CYYN 271500Z AUTO 19011KT 9SM CLR 07/01 A3025 RMK SLP264=
METAR CYYN 271400Z AUTO 20010KT 9SM CLR 05/01 A3025 RMK SLP265=
METAR CYYN 271300Z AUTO 20008KT 9SM CLR 01/M01 A3024 RMK SLP265=

TAF CYYN 271138Z 2712/2724 20008KT P6SM SKC
BECMG 2716/2718 21012KT
FM272100 23008KT P6SM SCT050
BECMG 2722/2724 26008KT
RMK FCST BASED ON AUTO OBS. NXT FCST BY 271800Z=
Your time UTC time
Weather data provided by Environment Canada and NAV CANADA